• Join FlightAware (Why Join?)
  • Login
  • US Flag 
05:12AM EDT


 

Airport Tracker/Info


-or-


 

Live Flight TrackerFlight Track Log ✈ EJA122 ✈ 25-Apr-2013 ✈ KPVD - CYYZ

Flight Track Log - Related Links

Times and Time Zones

All times are in EDT time to prevent confusion due to time zone crossing. See the EJA122 flight status page for this flight to view local times or setup timezone preferences in your user account.

Time Position Orientation Groundspeed Altitude Reporting Facility
EDT Latitude Longitude Course Direction KTS MPH feet Rate Location/Type
05:30PM 41.7333 -71.4386 318° Northwest 167 192 500  Level Boston Center
05:31PM 41.7900 -71.5072 318° Northwest 222 255 4,300 3,000 Climbing Boston Center
05:32PM 41.8281 -71.5736 308° West 244 281 7,400 3,300 Climbing Boston Center
05:33PM 41.8706 -71.6594 304° West 268 308 10,900 2,820 Climbing Boston Center
05:34PM 41.9169 -71.7622 301° West 289 333 13,100 2,100 Climbing Boston Center
05:35PM 41.9592 -71.8567 301° West 319 367 15,100 1,980 Climbing Boston Center
05:36PM 41.9953 -71.9764 292° West 340 391 17,100 1,800 Climbing Boston Center
05:37PM 42.0289 -72.0767 294° West 340 391 18,800 1,800 Climbing Boston Center
05:38PM 42.0667 -72.1994 293° West 329 379 20,700 1,680 Climbing Boston Center
05:39PM 42.1022 -72.3197 292° West 334 384 22,200 1,500 Climbing Boston Center
05:40PM 42.1400 -72.4428 293° West 339 390 23,800 1,500 Climbing Boston Center
05:41PM 42.1753 -72.5661 291° West 349 402 25,300 1,500 Climbing Boston Center
05:42PM 42.2147 -72.6925 293° West 359 413 26,800 1,320 Climbing Boston Center
05:43PM 42.2517 -72.8217 291° West 359 413 28,000 600 Climbing Boston Center
05:44PM 42.2931 -72.9594 292° West 374 430 28,000  Level Boston Center
05:45PM 42.3381 -73.1169 291° West 397 457 28,000 60 Level Boston Center
05:46PM 42.3828 -73.2522 294° West 402 463 28,200 660 Climbing Boston Center
05:47PM 42.4214 -73.4047 289° West 411 473 29,400 1,140 Climbing Boston Center
05:48PM 42.4617 -73.5489 291° West 419 482 30,500 960 Climbing Boston Center
05:50PM 42.4997 -73.6875 290° West 407 468 31,600 660 Climbing Boston Center
05:51PM 42.5436 -73.8575 289° West 391 450 32,000 180 Climbing Boston Center
05:52PM 42.5836 -74.0022 291° West 396 456 32,000  Level Boston Center
05:53PM 42.6231 -74.1472 290° West 408 470 32,000  Level Boston Center
05:54PM 42.6667 -74.2981 292° West 414 476 32,000 -60 Level Boston Center
05:55PM 42.7058 -74.4461 290° West 414 476 31,900  Descending Boston Center
05:56PM 42.7428 -74.5917 289° West 407 468 32,000  Climbing Boston Center
05:57PM 42.7817 -74.7317 291° West 407 468 32,000  Level Boston Center
05:58PM 42.8203 -74.8772 290° West 407 468 32,000  Level Boston Center
05:59PM 42.8589 -75.0233 290° West 407 468 32,000  Level Boston Center
06:00PM 42.8972 -75.1667 290° West 407 468 32,000  Level Boston Center
06:01PM 42.9353 -75.3158 289° West 412 474 32,000  Level Boston Center
06:02PM 42.9731 -75.4625 289° West 412 474 32,000  Level Boston Center
06:03PM 43.0350 -75.7111 289° West 401 461 32,000  Level Cleveland Center
06:04PM 43.0500 -75.7833 286° West 410 472 32,000  Level Toronto Center
06:05PM 43.0833 -75.9333 287° West 410 472 32,000  Level Toronto Center
06:06PM 43.1467 -76.1522 292° West 406 467 32,000  Level Cleveland Center
06:07PM 43.1522 -76.3056 273° West 411 473 32,000  Level Cleveland Center
06:08PM 43.1389 -76.4544 263° West 403 464 32,000  Level Cleveland Center
06:09PM 43.1256 -76.6061 263° West 408 470 32,000  Level Cleveland Center
06:10PM 43.1117 -76.7550 263° West 408 470 32,000  Level Cleveland Center
06:11PM 43.0981 -76.9067 263° West 408 470 32,000  Level Cleveland Center
06:12PM 43.0858 -77.0522 263° West 408 470 32,000  Level Cleveland Center
06:13PM 43.0714 -77.2011 262° West 403 464 32,000 -300 Level Cleveland Center
06:14PM 43.0569 -77.3525 263° West 408 470 31,500 -780 Descending Cleveland Center
06:15PM 43.0444 -77.5064 264° West 408 470 30,500 -960 Descending Cleveland Center
06:16PM 43.0297 -77.6550 262° West 408 470 29,600 -1,140 Descending Cleveland Center
06:17PM 43.0128 -77.8206 262° West 408 470 28,300 -1,140 Descending Cleveland Center
06:18PM 42.9975 -77.9686 262° West 408 470 27,400 -1,020 Descending Cleveland Center
06:19PM 42.9842 -78.1197 263° West 408 470 26,300 -720 Descending Cleveland Center
06:20PM 42.9683 -78.2650 262° West 408 470 26,000 -360 Descending Cleveland Center
06:21PM 42.9547 -78.4131 263° West 408 470 25,600 -960 Descending Cleveland Center
06:22PM 42.9383 -78.5556 261° West 408 470 24,100 -1,560 Descending Cleveland Center
06:23PM 42.9594 -78.6881 282° West 369 425 22,500 -1,500 Descending Cleveland Center
06:24PM 43.0047 -78.7806 304° West 313 360 21,100 -1,260 Descending Cleveland Center
06:26PM 43.0667 -78.9000 305° West 290 334 19,300 -1,260 Descending Toronto Center
06:27PM 43.1167 -79.0000 304° West 300 345 17,900 -1,200 Descending Toronto Center
06:28PM 43.1667 -79.0833 309° West 300 345 17,000 -1,080 Descending Toronto Center
06:29PM 43.2167 -79.1833 304° West 310 357 15,800 -1,200 Descending Toronto Center
06:30PM 43.2667 -79.2667 310° West 300 345 14,600 -1,200 Descending Toronto Center
06:31PM 43.3167 -79.3500 310° West 290 334 13,500 -1,260 Descending Toronto Center
06:32PM 43.4000 -79.4000 336° Northwest 290 334 12,100 -1,320 Descending Toronto Center
06:33PM 43.4500 -79.4500 324° Northwest 250 288 10,900 -1,200 Descending Toronto Center
06:34PM 43.4833 -79.5167 305° West 230 265 9,800 -1,140 Descending Toronto Center
06:35PM 43.5333 -79.5667 324° Northwest 240 276 8,700 -1,080 Descending Toronto Center
06:36PM 43.6000 -79.5000 36° Northeast 260 299 7,700 -1,260 Descending Toronto Center
06:37PM 43.6500 -79.4333 44° Northeast 270 311 6,200 -1,500 Descending Toronto Center
06:38PM 43.7000 -79.3500 50° Northeast 260 299 4,800 -1,140 Descending Toronto Center
06:39PM 43.7500 -79.2833 44° Northeast 250 288 4,000 -300 Descending Toronto Center
06:41PM 43.8500 -79.2833 360° North 180 207 4,000  Level Toronto Center
06:42PM 43.8333 -79.3333 245° Southwest 160 184 4,000  Level Toronto Center
06:43PM 43.8000 -79.3833 227° Southwest 140 161 4,000  Level Toronto Center
06:44PM 43.7833 -79.4333 245° Southwest 140 161 4,000 -540 Level Toronto Center
06:45PM 43.7500 -79.4500 200° South 150 173 3,000 -900 Descending Toronto Center
06:46PM 43.7167 -79.5000 227° Southwest 150 173 2,200 -840 Descending Toronto Center
06:47PM 43.7000 -79.5333 235° Southwest 140 161 1,400 -780 Descending Toronto Center
06:48PM 43.6667 -79.5667 216° Southwest 120 138 700 -480 Descending Toronto Center
06:49PM 43.6500 -79.5833 216° Southwest 70 81 500 -240 Descending Toronto Center